createdAt,value
2019-05-21T00:04:50.250Z,89.41
2019-05-21T00:09:53.592Z,88.47
2019-05-21T00:14:57.045Z,88.90
2019-05-21T00:20:00.385Z,88.71
2019-05-21T00:25:04.788Z,89.77
2019-05-21T00:30:44.624Z,90.10
2019-05-21T00:36:26.534Z,89.75
2019-05-21T00:42:00.923Z,88.98
2019-05-21T00:47:05.955Z,89.20
2019-05-21T00:52:09.684Z,88.76
2019-05-21T00:57:13.206Z,88.69
2019-05-21T01:02:16.611Z,89.10
2019-05-21T01:07:19.971Z,88.47
2019-05-21T01:12:23.327Z,89.46
2019-05-21T01:17:26.725Z,89.53
2019-05-21T01:22:30.066Z,90.15
2019-05-21T01:27:33.529Z,89.97
2019-05-21T01:32:36.862Z,90.07
2019-05-21T01:37:40.371Z,88.60
2019-05-21T01:42:43.707Z,88.21
2019-05-21T01:47:47.147Z,88.96
2019-05-21T01:52:50.541Z,88.83
2019-05-21T01:57:53.840Z,89.00
2019-05-21T02:02:57.197Z,88.78
2019-05-21T02:08:00.599Z,88.92
2019-05-21T02:13:05.061Z,88.80
2019-05-21T02:18:08.449Z,88.74
2019-05-21T02:23:11.806Z,88.62
2019-05-21T02:28:15.142Z,88.27
2019-05-21T02:33:18.599Z,88.90
2019-05-21T02:38:22.004Z,89.58
2019-05-21T02:43:25.443Z,89.13
2019-05-21T02:48:28.781Z,89.54
2019-05-21T02:53:34.553Z,88.93
2019-05-21T02:58:38.182Z,88.86
2019-05-21T03:03:41.643Z,88.72
2019-05-21T03:08:44.959Z,89.05
2019-05-21T03:13:48.371Z,89.04
2019-05-21T03:18:51.882Z,88.73
2019-05-21T03:23:55.235Z,88.44
2019-05-21T03:28:58.600Z,88.42
2019-05-21T03:34:01.933Z,88.15
2019-05-21T03:39:05.566Z,88.09
2019-05-21T03:44:08.960Z,87.95
2019-05-21T03:49:12.228Z,88.00
2019-05-21T03:54:15.652Z,87.89
2019-05-21T03:59:19.017Z,88.50
2019-05-21T04:04:22.507Z,88.77
2019-05-21T04:09:25.861Z,88.92
2019-05-21T04:14:43.087Z,88.52
2019-05-21T04:19:48.113Z,88.60
2019-05-21T04:24:51.582Z,88.06
2019-05-21T04:29:55.049Z,88.58
2019-05-21T04:34:58.398Z,88.88
2019-05-21T04:40:01.823Z,88.82
2019-05-21T04:45:08.433Z,88.91
2019-05-21T04:50:11.793Z,88.98
2019-05-21T04:55:15.296Z,88.95
2019-05-21T05:00:18.721Z,88.44
2019-05-21T05:05:22.120Z,88.35
2019-05-21T05:10:25.537Z,88.78
2019-05-21T05:15:28.937Z,88.29
2019-05-21T05:20:32.288Z,87.86
2019-05-21T05:25:35.653Z,87.39
2019-05-21T05:30:39.142Z,87.39
2019-05-21T05:35:43.467Z,87.82
2019-05-21T05:40:46.806Z,87.68
2019-05-21T05:45:52.215Z,87.19
2019-05-21T05:50:57.218Z,86.67
2019-05-21T05:56:00.680Z,86.13
2019-05-21T06:01:04.058Z,86.46
2019-05-21T06:06:07.421Z,86.06
2019-05-21T06:11:10.763Z,86.58
2019-05-21T06:16:14.171Z,86.21
2019-05-21T06:21:17.635Z,86.04
2019-05-21T06:26:21.069Z,86.96
2019-05-21T06:31:24.691Z,86.72
2019-05-21T06:36:28.233Z,86.63
2019-05-21T06:41:31.787Z,87.57
2019-05-21T06:46:35.207Z,87.36
2019-05-21T06:51:39.485Z,86.54
2019-05-21T06:56:42.838Z,86.43
2019-05-21T07:01:46.167Z,85.72
2019-05-21T07:06:49.761Z,85.60
2019-05-21T07:11:53.126Z,84.57
2019-05-21T07:16:56.561Z,84.22
2019-05-21T07:22:12.299Z,83.82
2019-05-21T07:27:05.152Z,84.12
2019-05-21T07:32:08.528Z,83.55
2019-05-21T07:37:11.946Z,83.90
2019-05-21T07:42:15.299Z,83.84
2019-05-21T07:47:18.648Z,83.53
2019-05-21T07:52:21.975Z,83.38
2019-05-21T07:57:25.338Z,84.14
2019-05-21T08:02:28.687Z,83.07
2019-05-21T08:07:32.008Z,82.50
2019-05-21T08:12:39.281Z,82.26
2019-05-21T08:17:40.492Z,83.24
2019-05-21T08:22:43.905Z,82.36
2019-05-21T08:27:47.239Z,80.89
2019-05-21T08:32:50.624Z,80.55
2019-05-21T08:37:53.996Z,81.23
2019-05-21T08:42:57.365Z,80.90
2019-05-21T08:48:00.678Z,81.72
2019-05-21T08:53:04.017Z,81.92
2019-05-21T08:58:07.951Z,81.07
2019-05-21T09:03:11.434Z,80.71
2019-05-21T09:08:14.885Z,80.86
2019-05-21T09:13:18.360Z,80.58
2019-05-21T09:18:21.837Z,81.10
2019-05-21T09:23:25.278Z,79.53
2019-05-21T09:28:28.725Z,80.35
2019-05-21T09:33:32.062Z,80.39
2019-05-21T09:38:35.430Z,79.40
2019-05-21T09:43:38.777Z,80.57
2019-05-21T09:48:42.207Z,80.02
2019-05-21T09:53:45.542Z,80.27
2019-05-21T09:58:49.095Z,80.42
2019-05-21T10:03:54.102Z,79.82
2019-05-21T10:08:57.459Z,79.64
2019-05-21T10:14:00.806Z,80.05
2019-05-21T10:19:04.197Z,79.23
2019-05-21T10:24:07.695Z,79.32
2019-05-21T10:29:11.056Z,78.33
2019-05-21T10:34:14.396Z,77.83
2019-05-21T10:39:18.108Z,77.21
2019-05-21T10:44:21.377Z,77.00
2019-05-21T10:49:24.736Z,77.08
2019-05-21T10:54:28.077Z,74.94
2019-05-21T10:59:31.402Z,74.44
2019-05-21T11:04:39.139Z,74.94
2019-05-21T11:09:43.662Z,74.65
2019-05-21T11:14:47.125Z,74.12
2019-05-21T11:19:50.570Z,74.28
2019-05-21T11:24:53.860Z,74.15
2019-05-21T11:29:57.168Z,74.96
2019-05-21T11:35:00.602Z,74.95
2019-05-21T11:40:08.368Z,75.06
2019-05-21T11:45:10.477Z,73.82
2019-05-21T11:50:18.191Z,73.46
2019-05-21T11:55:21.522Z,74.19
2019-05-21T12:00:28.133Z,74.24
2019-05-21T12:05:31.479Z,73.54
2019-05-21T12:10:34.845Z,74.35
2019-05-21T12:15:38.185Z,74.16
2019-05-21T12:20:41.536Z,73.93
2019-05-21T12:25:44.958Z,73.90
2019-05-21T12:30:48.328Z,74.22
2019-05-21T12:35:51.686Z,71.34
2019-05-21T12:40:55.070Z,70.02
2019-05-21T12:45:58.382Z,69.74
2019-05-21T12:51:01.718Z,70.81
2019-05-21T12:56:05.064Z,70.42
2019-05-21T13:01:08.391Z,70.28
2019-05-21T13:06:11.933Z,69.75
2019-05-21T13:11:15.258Z,69.75
2019-05-21T13:16:18.614Z,72.95
2019-05-21T13:21:21.930Z,69.93
2019-05-21T13:26:25.285Z,70.67
2019-05-21T13:31:28.695Z,71.27
2019-05-21T13:36:32.158Z,73.88
2019-05-21T13:41:35.502Z,73.70
2019-05-21T13:46:38.872Z,73.15
2019-05-21T13:51:42.198Z,72.77
2019-05-21T13:56:45.917Z,73.06
2019-05-21T14:01:49.328Z,73.08
2019-05-21T14:06:52.721Z,73.08
2019-05-21T14:11:57.057Z,72.35
2019-05-21T14:17:00.397Z,71.78
2019-05-21T14:22:03.804Z,72.09
2019-05-21T14:27:07.235Z,71.60
2019-05-21T14:32:10.635Z,71.45
2019-05-21T14:37:14.044Z,70.98
2019-05-21T14:42:17.378Z,70.81
2019-05-21T14:47:20.780Z,70.94
2019-05-21T14:52:24.213Z,71.23
2019-05-21T14:57:27.658Z,71.23
2019-05-21T15:02:30.999Z,70.80
2019-05-21T15:07:34.505Z,71.70
2019-05-21T15:12:37.846Z,72.71
2019-05-21T15:17:41.284Z,72.71
2019-05-21T15:22:44.692Z,73.27
2019-05-21T15:27:48.021Z,73.82
2019-05-21T15:32:52.320Z,72.88
2019-05-21T15:37:55.714Z,75.17
2019-05-21T15:42:59.190Z,78.19
2019-05-21T15:48:02.515Z,79.71
2019-05-21T15:53:05.876Z,81.10
2019-05-21T15:58:09.225Z,80.51
2019-05-21T16:03:12.586Z,80.85
2019-05-21T16:08:15.942Z,83.00
2019-05-21T16:13:19.292Z,85.27
2019-05-21T16:18:22.676Z,83.42
2019-05-21T16:23:26.055Z,86.89
2019-05-21T16:28:29.390Z,85.51
2019-05-21T16:33:33.011Z,87.37
2019-05-21T16:38:36.383Z,87.08
2019-05-21T16:43:40.033Z,88.32
2019-05-21T16:48:43.468Z,88.38
2019-05-21T16:53:46.831Z,88.38
2019-05-21T16:58:50.294Z,87.87
2019-05-21T17:03:59.764Z,87.98
2019-05-21T17:08:58.759Z,87.51
2019-05-21T17:14:02.075Z,86.06
2019-05-21T17:19:05.410Z,85.63
2019-05-21T17:24:08.753Z,85.30
2019-05-21T17:29:12.119Z,85.49
2019-05-21T17:34:15.473Z,85.50
2019-05-21T17:39:18.893Z,85.84
2019-05-21T17:44:24.881Z,84.77
2019-05-21T17:49:27.328Z,85.17
2019-05-21T17:54:30.768Z,84.87
2019-05-21T17:59:34.176Z,84.69
2019-05-21T18:04:38.432Z,84.71
2019-05-21T18:09:42.467Z,84.47
2019-05-21T18:14:46.034Z,84.38
2019-05-21T18:19:50.943Z,84.94
2019-05-21T18:24:55.320Z,85.02
2019-05-21T18:29:59.051Z,84.99
2019-05-21T18:35:02.423Z,85.44
2019-05-21T18:40:08.161Z,85.27
2019-05-21T18:45:11.703Z,85.60
2019-05-21T18:50:15.950Z,86.46
2019-05-21T18:55:19.363Z,86.03
2019-05-21T19:00:22.948Z,86.03
2019-05-21T19:05:26.410Z,85.87
2019-05-21T19:10:29.787Z,86.24
2019-05-21T19:15:33.122Z,85.90
2019-05-21T19:20:36.447Z,86.07
2019-05-21T19:25:39.816Z,85.83
2019-05-21T19:30:43.156Z,85.79
2019-05-21T19:35:46.536Z,86.19
2019-05-21T19:40:50.065Z,85.90
2019-05-21T19:45:54.409Z,85.92
2019-05-21T19:51:00.435Z,85.85
2019-05-21T19:56:03.886Z,85.32
2019-05-21T20:01:08.364Z,85.42
2019-05-21T20:06:12.954Z,85.81
2019-05-21T20:11:17.499Z,85.45
2019-05-21T20:16:22.091Z,85.04
2019-05-21T20:21:25.877Z,85.14
2019-05-21T20:26:30.861Z,85.11
2019-05-21T20:31:34.594Z,85.19
2019-05-21T20:36:40.768Z,85.48
2019-05-21T20:41:44.180Z,85.63
2019-05-21T20:46:48.247Z,85.71
2019-05-21T20:51:51.663Z,85.65
2019-05-21T20:56:55.139Z,85.92
2019-05-21T21:01:59.102Z,85.91
2019-05-21T21:07:03.884Z,85.79
2019-05-21T21:12:08.861Z,85.58
2019-05-21T21:17:14.548Z,85.50
2019-05-21T21:22:18.130Z,85.56
2019-05-21T21:27:21.936Z,85.61
2019-05-21T21:32:25.438Z,85.40
2019-05-21T21:37:28.797Z,85.43
2019-05-21T21:42:32.515Z,85.18
2019-05-21T21:47:36.444Z,85.37
2019-05-21T21:52:40.621Z,85.21
2019-05-21T21:57:43.973Z,85.20
2019-05-21T22:02:47.381Z,85.36
2019-05-21T22:07:50.909Z,85.18
2019-05-21T22:12:54.355Z,85.21
2019-05-21T22:17:58.243Z,85.20
2019-05-21T22:23:01.651Z,85.59
2019-05-21T22:28:05.065Z,85.92
2019-05-21T22:33:08.656Z,85.91
2019-05-21T22:38:12.118Z,86.35
2019-05-21T22:43:15.481Z,86.42
2019-05-21T22:48:18.798Z,86.71
2019-05-21T22:53:22.144Z,86.96
2019-05-21T22:58:25.556Z,87.26
2019-05-21T23:03:29.436Z,87.29
2019-05-21T23:08:33.251Z,87.46
2019-05-21T23:13:36.832Z,87.24
2019-05-21T23:18:40.180Z,87.39
2019-05-21T23:23:44.724Z,87.53
2019-05-21T23:28:48.540Z,87.28
2019-05-21T23:33:51.960Z,87.49
2019-05-21T23:38:56.233Z,87.68
2019-05-21T23:44:00.598Z,87.86
2019-05-21T23:49:04.052Z,87.74
2019-05-21T23:54:07.674Z,87.91
2019-05-21T23:59:11.034Z,87.87
